createdAt,value
2022-12-05T00:01:25.799Z,100243.94
2022-12-05T00:03:55.089Z,100235.28
2022-12-05T00:06:23.715Z,100243.63
2022-12-05T00:08:51.357Z,100239.19
2022-12-05T00:11:21.612Z,100241.25
2022-12-05T00:13:50.027Z,100237.84
2022-12-05T00:16:20.197Z,100240.97
2022-12-05T00:18:48.133Z,100241.69
2022-12-05T00:21:20.135Z,100236.47
2022-12-05T00:23:48.138Z,100243.47
2022-12-05T00:26:16.031Z,100234.81
2022-12-05T00:28:45.029Z,100233.75
2022-12-05T00:31:15.211Z,100235.34
2022-12-05T00:33:43.032Z,100228.63
2022-12-05T00:36:24.422Z,100219.81
2022-12-05T00:38:53.151Z,100223.19
2022-12-05T00:41:25.375Z,100215.38
2022-12-05T00:43:53.586Z,100220.41
2022-12-05T00:46:23.371Z,100226.28
2022-12-05T00:48:53.519Z,100227.28
2022-12-05T00:51:30.160Z,100222.06
2022-12-05T00:54:03.162Z,100228.63
2022-12-05T00:56:32.427Z,100229.41
2022-12-05T00:59:01.423Z,100229.66
2022-12-05T01:01:38.257Z,100231.56
2022-12-05T01:04:11.049Z,100227.94
2022-12-05T01:06:39.428Z,100231.66
2022-12-05T01:09:07.264Z,100228.03
2022-12-05T01:11:39.452Z,100228.81
2022-12-05T01:14:09.653Z,100219.25
2022-12-05T01:16:39.370Z,100220.34
2022-12-05T01:19:13.044Z,100218.25
2022-12-05T01:21:41.060Z,100219.03
2022-12-05T01:24:09.447Z,100211.94
2022-12-05T01:26:37.438Z,100223.38
2022-12-05T01:29:05.455Z,100212.94
2022-12-05T01:31:35.689Z,100213.03
2022-12-05T01:34:05.418Z,100210.91
2022-12-05T01:36:33.279Z,100212.72
2022-12-05T01:39:01.192Z,100209.06
2022-12-05T01:41:34.449Z,100209.84
2022-12-05T01:44:06.452Z,100214.50
2022-12-05T01:46:39.452Z,100208.25
2022-12-05T01:49:18.983Z,100208.25
2022-12-05T01:51:50.299Z,100208.28
2022-12-05T01:54:19.259Z,100214.50
2022-12-05T01:56:50.385Z,100210.28
2022-12-05T01:59:19.082Z,100209.06
2022-12-05T02:01:47.305Z,100209.84
2022-12-05T02:04:15.461Z,100212.38
2022-12-05T02:06:43.296Z,100206.63
2022-12-05T02:09:11.063Z,100198.56
2022-12-05T02:11:53.889Z,100209.53
2022-12-05T02:14:28.464Z,100207.50
2022-12-05T02:17:14.220Z,100207.75
2022-12-05T02:19:50.895Z,100203.63
2022-12-05T02:22:59.307Z,100208.31
2022-12-05T02:25:42.308Z,100214.03
2022-12-05T02:28:25.323Z,100216.66
2022-12-05T02:31:02.352Z,100222.34
2022-12-05T02:33:38.100Z,100218.94
2022-12-05T02:36:08.007Z,100217.59
2022-12-05T02:38:42.256Z,100218.94
2022-12-05T02:41:30.332Z,100215.06
2022-12-05T02:44:01.320Z,100221.03
2022-12-05T02:46:31.313Z,100222.34
2022-12-05T02:49:09.485Z,100219.03
2022-12-05T02:51:42.324Z,100221.94
2022-12-05T02:54:13.340Z,100215.00
2022-12-05T02:56:45.111Z,100229.78
2022-12-05T02:59:15.179Z,100229.78
2022-12-05T03:01:48.185Z,100225.09
2022-12-05T03:04:16.270Z,100219.34
2022-12-05T03:06:50.241Z,100226.38
2022-12-05T03:09:24.335Z,100230.22
2022-12-05T03:12:10.337Z,100232.78
2022-12-05T03:14:43.852Z,100240.84
2022-12-05T03:17:16.340Z,100233.91
2022-12-05T03:20:05.344Z,100226.59
2022-12-05T03:22:38.342Z,100226.59
2022-12-05T03:25:06.506Z,100231.34
2022-12-05T03:27:38.347Z,100230.81
2022-12-05T03:30:09.272Z,100236.53
2022-12-05T03:32:58.347Z,100233.66
2022-12-05T03:35:46.258Z,100223.53
2022-12-05T03:38:39.353Z,100232.66
2022-12-05T03:41:15.710Z,100226.66
2022-12-05T03:44:00.518Z,100224.53
2022-12-05T03:46:33.348Z,100228.28
2022-12-05T03:49:16.297Z,100227.19
2022-12-05T03:51:58.264Z,100225.66
2022-12-05T03:54:47.362Z,100224.63
2022-12-05T03:57:23.290Z,100225.91
2022-12-05T03:59:55.216Z,100230.34
2022-12-05T04:02:33.524Z,100230.63
2022-12-05T04:05:11.270Z,100229.06
2022-12-05T04:07:40.293Z,100218.38
2022-12-05T04:10:12.528Z,100224.09
2022-12-05T04:12:41.529Z,100220.69
2022-12-05T04:15:13.273Z,100229.78
2022-12-05T04:17:53.505Z,100236.31
2022-12-05T04:20:49.932Z,100226.59
2022-12-05T04:23:17.533Z,100220.38
2022-12-05T04:25:50.983Z,100223.50
2022-12-05T04:28:48.382Z,100221.44
2022-12-05T04:31:28.612Z,100223.75
2022-12-05T04:33:59.281Z,100230.06
2022-12-05T04:36:33.232Z,100221.16
2022-12-05T04:39:16.124Z,100216.75
2022-12-05T04:41:51.155Z,100217.38
2022-12-05T04:44:21.338Z,100229.03
2022-12-05T04:46:50.238Z,100225.41
2022-12-05T04:49:21.548Z,100221.47
2022-12-05T04:51:52.116Z,100221.00
2022-12-05T04:54:32.289Z,100217.31
2022-12-05T04:57:07.553Z,100215.81
2022-12-05T04:59:35.555Z,100208.53
2022-12-05T05:02:09.355Z,100196.09
2022-12-05T05:04:41.559Z,100201.31
2022-12-05T05:07:10.296Z,100211.19
2022-12-05T05:09:38.432Z,100205.50
2022-12-05T05:12:06.961Z,100216.72
2022-12-05T05:14:34.414Z,100223.19
2022-12-05T05:17:02.301Z,100220.03
2022-12-05T05:19:30.192Z,100230.94
2022-12-05T05:21:57.966Z,100226.81
2022-12-05T05:24:26.714Z,100227.84
2022-12-05T05:26:57.492Z,100235.63
2022-12-05T05:29:25.421Z,100221.25
2022-12-05T05:31:53.198Z,100220.69
2022-12-05T05:34:20.575Z,100219.44
2022-12-05T05:36:52.313Z,100227.25
2022-12-05T05:39:20.172Z,100231.88
2022-12-05T05:41:47.576Z,100227.16
2022-12-05T05:44:15.454Z,100225.41
2022-12-05T05:46:43.351Z,100229.84
2022-12-05T05:49:11.461Z,100232.00
2022-12-05T05:51:39.317Z,100232.03
2022-12-05T05:54:07.198Z,100233.81
2022-12-05T05:56:34.396Z,100237.22
2022-12-05T05:59:03.870Z,100244.50
2022-12-05T06:01:31.588Z,100248.44
2022-12-05T06:03:59.476Z,100247.66
2022-12-05T06:06:26.799Z,100244.25
2022-12-05T06:08:55.167Z,100257.28
2022-12-05T06:11:26.518Z,100255.16
2022-12-05T06:13:56.477Z,100252.78
2022-12-05T06:16:24.401Z,100251.19
2022-12-05T06:18:52.501Z,100257.16
2022-12-05T06:21:20.545Z,100262.88
2022-12-05T06:23:48.341Z,100262.34
2022-12-05T06:26:18.065Z,100262.09
2022-12-05T06:28:45.882Z,100263.41
2022-12-05T06:31:21.433Z,100261.56
2022-12-05T06:33:49.421Z,100258.97
2022-12-05T06:36:18.625Z,100263.06
2022-12-05T06:38:45.756Z,100271.94
2022-12-05T06:41:16.792Z,100268.06
2022-12-05T06:43:44.188Z,100265.97
2022-12-05T06:46:13.418Z,100264.91
2022-12-05T06:48:40.395Z,100269.81
2022-12-05T06:51:10.083Z,100267.72
2022-12-05T06:53:37.178Z,100267.69
2022-12-05T06:56:08.294Z,100277.81
2022-12-05T06:58:35.351Z,100279.69
2022-12-05T07:01:21.100Z,100283.00
2022-12-05T07:03:49.045Z,100284.78
2022-12-05T07:06:16.517Z,100279.06
2022-12-05T07:08:43.851Z,100281.13
2022-12-05T07:11:10.666Z,100284.25
2022-12-05T07:13:37.627Z,100293.69
2022-12-05T07:16:07.427Z,100296.84
2022-12-05T07:18:35.630Z,100294.31
2022-12-05T07:21:13.798Z,100296.13
2022-12-05T07:23:45.261Z,100293.75
2022-12-05T07:26:15.198Z,100300.03
2022-12-05T07:28:42.589Z,100295.91
2022-12-05T07:31:12.381Z,100299.75
2022-12-05T07:33:40.794Z,100299.25
2022-12-05T07:36:16.269Z,100300.00
2022-12-05T07:38:44.110Z,100307.00
2022-12-05T07:41:15.447Z,100307.59
2022-12-05T07:43:42.597Z,100310.44
2022-12-05T07:46:11.766Z,100307.28
2022-12-05T07:48:39.649Z,100313.06
2022-12-05T07:51:08.619Z,100312.16
2022-12-05T07:53:36.604Z,100314.69
2022-12-05T07:56:05.799Z,100313.91
2022-12-05T07:58:33.579Z,100317.00
2022-12-05T08:01:21.587Z,100317.00
2022-12-05T08:03:49.662Z,100317.50
2022-12-05T08:06:18.553Z,100319.81
2022-12-05T08:08:46.129Z,100315.28
2022-12-05T08:11:15.263Z,100322.34
2022-12-05T08:13:43.133Z,100329.09
2022-12-05T08:16:12.909Z,100334.28
2022-12-05T08:18:40.202Z,100327.03
2022-12-05T08:21:09.240Z,100337.16
2022-12-05T08:23:36.890Z,100327.19
2022-12-05T08:26:05.659Z,100333.19
2022-12-05T08:28:33.306Z,100346.53
2022-12-05T08:31:05.597Z,100338.09
2022-12-05T08:33:32.639Z,100350.31
2022-12-05T08:36:04.434Z,100347.72
2022-12-05T08:38:33.387Z,100351.38
2022-12-05T08:41:05.235Z,100342.63
2022-12-05T08:43:32.649Z,100338.97
2022-12-05T08:45:59.806Z,100345.78
2022-12-05T08:48:29.640Z,100348.34
2022-12-05T08:50:57.167Z,100342.56
2022-12-05T08:53:24.219Z,100341.78
2022-12-05T08:55:51.475Z,100342.03
2022-12-05T08:58:18.496Z,100346.72
2022-12-05T09:00:45.414Z,100343.66
2022-12-05T09:03:12.519Z,100343.66
2022-12-05T09:05:39.756Z,100340.00
2022-12-05T09:08:07.005Z,100342.00
2022-12-05T09:10:34.054Z,100339.38
2022-12-05T09:13:02.854Z,100337.00
2022-12-05T09:15:29.805Z,100337.75
2022-12-05T09:17:56.825Z,100337.66
2022-12-05T09:20:23.582Z,100329.34
2022-12-05T09:22:52.502Z,100334.44
2022-12-05T09:25:19.387Z,100323.38
2022-12-05T09:27:46.712Z,100322.53
2022-12-05T09:30:14.482Z,100322.31
2022-12-05T09:32:41.926Z,100320.75
2022-12-05T09:35:08.989Z,100321.69
2022-12-05T09:37:40.238Z,100322.41
2022-12-05T09:40:10.338Z,100320.50
2022-12-05T09:42:57.045Z,100316.84
2022-12-05T09:45:24.880Z,100311.28
2022-12-05T09:47:59.576Z,100315.75
2022-12-05T09:50:44.582Z,100313.78
2022-12-05T09:53:11.313Z,100312.19
2022-12-05T09:56:04.840Z,100317.94
2022-12-05T09:58:35.069Z,100313.28
2022-12-05T10:01:20.954Z,100306.84
2022-12-05T10:04:17.647Z,100313.06
2022-12-05T10:06:54.783Z,100305.94
2022-12-05T10:10:00.637Z,100313.38
2022-12-05T10:13:20.499Z,100304.59
2022-12-05T10:15:48.863Z,100299.31
2022-12-05T10:18:46.155Z,100291.03
2022-12-05T10:21:23.597Z,100292.66
2022-12-05T10:23:58.847Z,100291.09
2022-12-05T10:26:46.741Z,100284.56
2022-12-05T10:29:36.287Z,100282.63
2022-12-05T10:32:31.503Z,100287.50
2022-12-05T10:35:15.231Z,100281.06
2022-12-05T10:37:46.769Z,100287.06
2022-12-05T10:40:14.376Z,100281.03
2022-12-05T10:42:41.677Z,100269.41
2022-12-05T10:45:17.904Z,100269.78
2022-12-05T10:47:45.235Z,100268.94
2022-12-05T10:50:29.459Z,100269.06
2022-12-05T10:52:58.198Z,100257.97
2022-12-05T10:55:54.766Z,100260.50
2022-12-05T10:58:29.909Z,100259.03
2022-12-05T11:00:59.112Z,100251.06
2022-12-05T11:03:34.418Z,100257.72
2022-12-05T11:06:03.674Z,100250.16
2022-12-05T11:09:02.365Z,100250.56
2022-12-05T11:11:23.347Z,100245.38
2022-12-05T11:13:58.536Z,100243.81
2022-12-05T11:16:39.110Z,100238.69
2022-12-05T11:19:23.444Z,100234.81
2022-12-05T11:21:50.776Z,100230.84
2022-12-05T11:24:38.034Z,100231.63
2022-12-05T11:27:17.018Z,100226.88
2022-12-05T11:29:46.900Z,100225.22
2022-12-05T11:32:26.087Z,100227.19
2022-12-05T11:35:03.786Z,100228.91
2022-12-05T11:37:38.796Z,100223.75
2022-12-05T11:40:16.195Z,100223.91
2022-12-05T11:43:10.416Z,100213.16
2022-12-05T11:45:43.063Z,100215.56
2022-12-05T11:48:15.775Z,100212.59
2022-12-05T11:51:14.296Z,100207.38
2022-12-05T11:53:41.152Z,100211.41
2022-12-05T11:56:26.016Z,100204.91
2022-12-05T11:59:19.270Z,100200.38
2022-12-05T12:01:46.304Z,100205.81
2022-12-05T12:04:37.084Z,100200.19
2022-12-05T12:07:30.025Z,100208.53
2022-12-05T12:10:35.348Z,100199.41
2022-12-05T12:13:35.988Z,100193.63
2022-12-05T12:16:14.230Z,100195.16
2022-12-05T12:18:53.432Z,100190.09
2022-12-05T12:21:45.731Z,100182.00
2022-12-05T12:24:38.789Z,100187.25
2022-12-05T12:27:28.042Z,100200.19
2022-12-05T12:30:04.158Z,100198.22
2022-12-05T12:32:54.300Z,100188.16
2022-12-05T12:35:47.300Z,100181.09
2022-12-05T12:38:23.548Z,100174.22
2022-12-05T12:40:58.341Z,100186.44
2022-12-05T12:44:02.090Z,100180.69
2022-12-05T12:46:55.674Z,100185.59
2022-12-05T12:49:28.636Z,100186.78
2022-12-05T12:52:03.815Z,100179.13
2022-12-05T12:55:04.850Z,100182.53
2022-12-05T12:57:48.564Z,100179.06
2022-12-05T13:00:37.160Z,100174.41
2022-12-05T13:03:08.457Z,100174.53
2022-12-05T13:05:48.322Z,100167.47
2022-12-05T13:08:27.137Z,100163.22
2022-12-05T13:10:55.870Z,100164.78
2022-12-05T13:13:28.136Z,100161.75
2022-12-05T13:15:58.302Z,100167.28
2022-12-05T13:18:26.267Z,100167.22
2022-12-05T13:20:55.698Z,100159.75
2022-12-05T13:23:55.633Z,100160.06
2022-12-05T13:26:40.018Z,100162.97
2022-12-05T13:29:23.928Z,100155.03
2022-12-05T13:31:55.962Z,100151.75
2022-12-05T13:34:49.595Z,100158.31
2022-12-05T13:38:07.228Z,100161.63
2022-12-05T13:40:59.940Z,100155.63
2022-12-05T13:43:35.730Z,100157.97
2022-12-05T13:46:31.047Z,100170.16
2022-12-05T13:49:17.405Z,100166.75
2022-12-05T13:51:51.736Z,100167.41
2022-12-05T13:54:19.893Z,100170.81
2022-12-05T13:56:52.895Z,100175.19
2022-12-05T13:59:57.997Z,100174.22
2022-12-05T14:02:43.673Z,100181.94
2022-12-05T14:05:19.338Z,100181.41
2022-12-05T14:07:48.208Z,100181.09
2022-12-05T14:10:37.246Z,100172.69
2022-12-05T14:13:24.212Z,100166.38
2022-12-05T14:15:55.302Z,100165.13
2022-12-05T14:18:35.097Z,100162.09
2022-12-05T14:21:06.374Z,100157.72
2022-12-05T14:23:56.442Z,100166.84
2022-12-05T14:26:48.520Z,100156.88
2022-12-05T14:29:27.815Z,100169.75
2022-12-05T14:32:22.713Z,100170.31
2022-12-05T14:34:56.270Z,100174.69
2022-12-05T14:37:36.959Z,100171.28
2022-12-05T14:40:19.053Z,100168.59
2022-12-05T14:43:15.619Z,100164.41
2022-12-05T14:45:51.985Z,100158.31
2022-12-05T14:48:47.117Z,100164.34
2022-12-05T14:51:32.792Z,100152.31
2022-12-05T14:54:17.014Z,100163.88
2022-12-05T14:57:07.141Z,100158.13
2022-12-05T14:59:38.742Z,100153.28
2022-12-05T15:02:05.573Z,100141.28
2022-12-05T15:04:54.195Z,100144.56
2022-12-05T15:07:34.788Z,100143.00
2022-12-05T15:10:35.060Z,100149.03
2022-12-05T15:13:17.688Z,100141.94
2022-12-05T15:15:48.120Z,100150.84
2022-12-05T15:18:35.221Z,100152.88
2022-12-05T15:21:07.894Z,100142.63
2022-12-05T15:23:47.875Z,100148.31
2022-12-05T15:29:20.512Z,100137.38
2022-12-05T15:31:48.891Z,100130.69
2022-12-05T15:34:21.044Z,100130.97
2022-12-05T15:37:07.038Z,100124.00
2022-12-05T15:39:53.472Z,100120.69
2022-12-05T15:42:36.863Z,100120.88
2022-12-05T15:45:15.601Z,100112.56
2022-12-05T15:47:57.702Z,100100.53
2022-12-05T15:50:46.287Z,100094.84
2022-12-05T15:53:32.806Z,100099.09
2022-12-05T15:56:22.790Z,100114.28
2022-12-05T15:59:03.808Z,100125.44
2022-12-05T16:01:31.974Z,100137.66
2022-12-05T16:04:04.563Z,100132.31
2022-12-05T16:06:39.653Z,100120.31
2022-12-05T16:09:15.814Z,100117.91
2022-12-05T16:11:57.061Z,100115.56
2022-12-05T16:17:15.956Z,100114.91
2022-12-05T16:19:43.985Z,100115.38
2022-12-05T16:22:14.958Z,100116.66
2022-12-05T16:25:02.730Z,100122.84
2022-12-05T16:27:34.961Z,100124.63
2022-12-05T16:30:12.839Z,100131.56
2022-12-05T16:32:40.977Z,100131.88
2022-12-05T16:35:45.585Z,100131.28
2022-12-05T16:38:25.822Z,100134.97
2022-12-05T16:40:59.226Z,100131.28
2022-12-05T16:43:41.135Z,100133.91
2022-12-05T16:46:14.095Z,100131.28
2022-12-05T16:48:44.438Z,100135.47
2022-12-05T16:51:11.117Z,100126.56
2022-12-05T16:53:39.393Z,100127.63
2022-12-05T16:56:07.293Z,100124.03
2022-12-05T16:58:35.480Z,100125.59
2022-12-05T17:01:05.981Z,100125.00
2022-12-05T17:03:35.376Z,100114.53
2022-12-05T17:06:03.140Z,100114.63
2022-12-05T17:08:30.603Z,100102.31
2022-12-05T17:10:58.245Z,100106.19
2022-12-05T17:13:25.855Z,100110.44
2022-12-05T17:15:53.163Z,100106.38
2022-12-05T17:18:26.540Z,100106.97
2022-12-05T17:20:57.296Z,100095.31
2022-12-05T17:23:24.689Z,100089.50
2022-12-05T17:25:54.606Z,100083.31
2022-12-05T17:28:22.103Z,100090.69
2022-12-05T17:30:49.963Z,100087.75
2022-12-05T17:33:19.000Z,100073.63
2022-12-05T17:35:47.102Z,100069.38
2022-12-05T17:38:14.879Z,100062.38
2022-12-05T17:40:42.102Z,100073.03
2022-12-05T17:43:23.082Z,100073.63
2022-12-05T17:45:53.034Z,100071.09
2022-12-05T17:48:21.008Z,100075.16
2022-12-05T17:50:49.240Z,100085.84
2022-12-05T17:53:19.046Z,100081.38
2022-12-05T17:55:48.949Z,100079.84
2022-12-05T17:58:17.046Z,100088.94
2022-12-05T18:00:47.039Z,100095.91
2022-12-05T18:03:16.959Z,100083.31
2022-12-05T18:05:45.051Z,100089.50
2022-12-05T18:08:13.862Z,100093.09
2022-12-05T18:10:43.020Z,100093.09
2022-12-05T18:13:11.117Z,100088.72
2022-12-05T18:15:43.036Z,100085.84
2022-12-05T18:18:15.121Z,100091.94
2022-12-05T18:20:43.121Z,100084.69
2022-12-05T18:23:10.904Z,100085.84
2022-12-05T18:25:39.028Z,100071.59
2022-12-05T18:28:06.904Z,100076.72
2022-12-05T18:30:34.250Z,100064.69
2022-12-05T18:33:01.650Z,100071.47
2022-12-05T18:35:41.133Z,100076.13
2022-12-05T18:38:11.045Z,100082.31
2022-12-05T18:40:38.923Z,100074.19
2022-12-05T18:43:06.576Z,100068.19
2022-12-05T18:45:34.131Z,100066.84
2022-12-05T18:48:23.241Z,100061.38
2022-12-05T18:50:49.262Z,100057.72
2022-12-05T18:53:17.077Z,100058.22
2022-12-05T18:56:05.352Z,100058.09
2022-12-05T18:58:32.140Z,100058.09
2022-12-05T19:01:12.117Z,100065.66
2022-12-05T19:03:40.147Z,100055.19
2022-12-05T19:06:15.144Z,100047.44
2022-12-05T19:08:44.852Z,100055.59
2022-12-05T19:11:14.094Z,100058.88
2022-12-05T19:13:41.849Z,100054.41
2022-12-05T19:16:11.176Z,100059.06
2022-12-05T19:18:39.095Z,100056.94
2022-12-05T19:21:07.581Z,100048.38
2022-12-05T19:23:35.098Z,100049.75
2022-12-05T19:26:05.679Z,100046.09
2022-12-05T19:28:36.102Z,100030.94
2022-12-05T19:31:06.592Z,100039.56
2022-12-05T19:33:35.588Z,100048.19
2022-12-05T19:36:06.158Z,100044.81
2022-12-05T19:38:35.209Z,100036.19
2022-12-05T19:41:03.949Z,100039.88
2022-12-05T19:43:32.206Z,100041.22
2022-12-05T19:46:03.640Z,100038.50
2022-12-05T19:48:31.284Z,100034.66
2022-12-05T19:51:00.093Z,100026.91
2022-12-05T19:53:32.212Z,100020.88
2022-12-05T19:56:04.886Z,100022.06
2022-12-05T19:58:33.608Z,100019.31
2022-12-05T20:01:18.195Z,100028.44
2022-12-05T20:03:51.888Z,100015.84
2022-12-05T20:06:20.127Z,100013.22
2022-12-05T20:08:48.612Z,100023.78
2022-12-05T20:11:19.187Z,100017.97
2022-12-05T20:13:48.065Z,100018.75
2022-12-05T20:16:19.155Z,100021.56
2022-12-05T20:18:47.132Z,100021.25
2022-12-05T20:21:19.186Z,100020.66
2022-12-05T20:23:46.911Z,100018.25
2022-12-05T20:26:16.978Z,100026.84
2022-12-05T20:28:44.805Z,100021.94
2022-12-05T20:31:18.675Z,100026.09
2022-12-05T20:33:46.309Z,100017.16
2022-12-05T20:36:16.187Z,100019.50
2022-12-05T20:38:44.189Z,100001.44
2022-12-05T20:41:17.189Z,100008.34
2022-12-05T20:43:49.009Z,100006.31
2022-12-05T20:46:19.257Z,100005.72
2022-12-05T20:48:48.012Z,99990.63
2022-12-05T20:51:20.239Z,100003.72
2022-12-05T20:53:48.078Z,100004.91
2022-12-05T20:56:23.417Z,100011.38
2022-12-05T20:58:53.082Z,100000.50
2022-12-05T21:01:22.278Z,99992.06
2022-12-05T21:03:51.199Z,99992.34
2022-12-05T21:06:20.200Z,99982.66
2022-12-05T21:08:47.875Z,99980.25
2022-12-05T21:11:15.392Z,99988.59
2022-12-05T21:13:42.937Z,99989.66
2022-12-05T21:16:12.477Z,99998.88
2022-12-05T21:18:40.524Z,99993.84
2022-12-05T21:21:11.317Z,99983.06
2022-12-05T21:23:39.321Z,99982.47
2022-12-05T21:26:08.322Z,99978.78
2022-12-05T21:28:36.042Z,99980.94
2022-12-05T21:31:12.257Z,99971.16
2022-12-05T21:33:41.179Z,99976.22
2022-12-05T21:36:09.950Z,99977.28
2022-12-05T21:38:37.216Z,99974.56
2022-12-05T21:41:06.051Z,99966.19
2022-12-05T21:43:35.039Z,99976.97
2022-12-05T21:46:02.993Z,99974.19
2022-12-05T21:48:30.684Z,99964.69
2022-12-05T21:50:58.685Z,99971.56
2022-12-05T21:53:26.329Z,99969.53
2022-12-05T21:56:02.236Z,99957.63
2022-12-05T21:58:30.225Z,99964.41
2022-12-05T22:00:57.969Z,99963.34
2022-12-05T22:03:25.335Z,99955.00
2022-12-05T22:06:02.472Z,99949.31
2022-12-05T22:08:31.483Z,99944.53
2022-12-05T22:11:07.233Z,99939.91
2022-12-05T22:13:35.233Z,99940.19
2022-12-05T22:16:03.509Z,99943.56
2022-12-05T22:18:31.467Z,99950.84
2022-12-05T22:21:00.566Z,99945.50
2022-12-05T22:23:28.710Z,99948.63
2022-12-05T22:26:07.239Z,99944.31
2022-12-05T22:28:35.450Z,99950.56
2022-12-05T22:31:05.322Z,99947.06
2022-12-05T22:33:35.983Z,99946.94
2022-12-05T22:36:05.347Z,99940.63
2022-12-05T22:38:35.089Z,99937.91
2022-12-05T22:41:05.329Z,99934.50
2022-12-05T22:43:34.723Z,99929.00
2022-12-05T22:46:07.187Z,99920.66
2022-12-05T22:48:35.097Z,99917.06
2022-12-05T22:51:02.350Z,99916.31
2022-12-05T22:53:31.094Z,99916.63
2022-12-05T22:56:07.101Z,99911.03
2022-12-05T22:58:35.103Z,99901.13
2022-12-05T23:01:20.262Z,99906.00
2022-12-05T23:03:49.378Z,99914.91
2022-12-05T23:06:18.119Z,99906.78
2022-12-05T23:08:50.456Z,99901.25
2022-12-05T23:11:19.534Z,99905.03
2022-12-05T23:13:49.113Z,99907.19
2022-12-05T23:16:22.813Z,99904.75
2022-12-05T23:18:51.475Z,99908.00
2022-12-05T23:21:23.119Z,99908.41
2022-12-05T23:23:52.270Z,99904.41
2022-12-05T23:26:21.363Z,99900.72
2022-12-05T23:28:48.744Z,99899.97
2022-12-05T23:31:16.396Z,99900.41
2022-12-05T23:33:44.272Z,99887.34
2022-12-05T23:36:12.369Z,99876.41
2022-12-05T23:38:41.325Z,99869.03
2022-12-05T23:41:13.324Z,99864.75
2022-12-05T23:43:42.331Z,99864.75
2022-12-05T23:46:11.326Z,99855.16
2022-12-05T23:48:39.243Z,99860.09
2022-12-05T23:51:14.510Z,99858.19
2022-12-05T23:53:43.331Z,99855.22
2022-12-05T23:56:12.282Z,99845.81
2022-12-05T23:58:40.269Z,99845.34
